sensor_id;sensor_type;location;lat;lon;timestamp;P1;durP1;ratioP1;P2;durP2;ratioP2
60002;SDS011;46322;52.018;8.702;2023-03-03T02:38:42;24.13;;;7.93;;
60002;SDS011;46322;52.018;8.702;2023-03-03T02:44:10;26.03;;;8.73;;
60002;SDS011;46322;52.018;8.702;2023-03-03T02:49:18;26.33;;;9.77;;
60002;SDS011;46322;52.018;8.702;2023-03-03T02:54:22;27.42;;;9.23;;
60002;SDS011;46322;52.018;8.702;2023-03-03T02:59:24;27.47;;;9.47;;
60002;SDS011;46322;52.018;8.702;2023-03-03T03:04:25;27.53;;;9.53;;
60002;SDS011;46322;52.018;8.702;2023-03-03T03:09:26;29.05;;;10.00;;
60002;SDS011;46322;52.018;8.702;2023-03-03T03:14:26;26.77;;;8.95;;
60002;SDS011;46322;52.018;8.702;2023-03-03T03:19:27;28.42;;;9.75;;
60002;SDS011;46322;52.018;8.702;2023-03-03T03:24:27;27.05;;;9.52;;
60002;SDS011;46322;52.018;8.702;2023-03-03T03:29:27;30.37;;;10.03;;
60002;SDS011;46322;52.018;8.702;2023-03-03T03:34:28;32.30;;;10.03;;
60002;SDS011;46322;52.018;8.702;2023-03-03T03:39:28;31.50;;;10.25;;
60002;SDS011;46322;52.018;8.702;2023-03-03T03:44:28;29.63;;;10.07;;
60002;SDS011;46322;52.018;8.702;2023-03-03T03:49:28;34.17;;;10.07;;
60002;SDS011;46322;52.018;8.702;2023-03-03T03:54:29;31.63;;;10.25;;
60002;SDS011;46322;52.018;8.702;2023-03-03T03:59:29;35.20;;;10.82;;
60002;SDS011;46322;52.018;8.702;2023-03-03T04:04:29;34.60;;;10.68;;
60002;SDS011;46322;52.018;8.702;2023-03-03T04:09:30;37.22;;;11.18;;
60002;SDS011;46322;52.018;8.702;2023-03-03T04:14:30;36.13;;;9.47;;
60002;SDS011;46322;52.018;8.702;2023-03-03T04:19:30;43.20;;;10.93;;
60002;SDS011;46322;52.018;8.702;2023-03-03T04:24:31;43.35;;;11.40;;
60002;SDS011;46322;52.018;8.702;2023-03-03T04:29:31;41.13;;;9.95;;
60002;SDS011;46322;52.018;8.702;2023-03-03T04:34:31;40.25;;;9.68;;
60002;SDS011;46322;52.018;8.702;2023-03-03T04:39:32;41.40;;;10.90;;
60002;SDS011;46322;52.018;8.702;2023-03-03T04:44:32;48.35;;;10.90;;
60002;SDS011;46322;52.018;8.702;2023-03-03T04:49:32;43.85;;;10.45;;
60002;SDS011;46322;52.018;8.702;2023-03-03T04:54:32;42.33;;;10.65;;
60002;SDS011;46322;52.018;8.702;2023-03-03T04:59:33;42.83;;;11.50;;
60002;SDS011;46322;52.018;8.702;2023-03-03T05:04:33;52.50;;;12.27;;
60002;SDS011;46322;52.018;8.702;2023-03-03T05:09:33;52.97;;;11.95;;
60002;SDS011;46322;52.018;8.702;2023-03-03T06:14:36;28.20;;;7.60;;
60002;SDS011;46322;52.018;8.702;2023-03-03T06:19:37;42.93;;;10.37;;
60002;SDS011;46322;52.018;8.702;2023-03-03T06:24:37;38.65;;;9.80;;
60002;SDS011;46322;52.018;8.702;2023-03-03T06:29:37;33.70;;;8.27;;
60002;SDS011;46322;52.018;8.702;2023-03-03T06:34:37;31.97;;;7.70;;
60002;SDS011;46322;52.018;8.702;2023-03-03T06:39:38;33.72;;;8.43;;
60002;SDS011;46322;52.018;8.702;2023-03-03T06:44:38;30.48;;;8.88;;
60002;SDS011;46322;52.018;8.702;2023-03-03T06:49:38;29.60;;;7.95;;
60002;SDS011;46322;52.018;8.702;2023-03-03T06:54:39;25.25;;;6.07;;
60002;SDS011;46322;52.018;8.702;2023-03-03T06:59:40;30.20;;;7.68;;
60002;SDS011;46322;52.018;8.702;2023-03-03T07:04:40;29.43;;;7.77;;
60002;SDS011;46322;52.018;8.702;2023-03-03T07:09:41;29.90;;;8.40;;
60002;SDS011;46322;52.018;8.702;2023-03-03T07:14:47;31.30;;;7.93;;
60002;SDS011;46322;52.018;8.702;2023-03-03T07:19:49;39.03;;;11.10;;
60002;SDS011;46322;52.018;8.702;2023-03-03T07:24:51;23.40;;;6.73;;
60002;SDS011;46322;52.018;8.702;2023-03-03T07:30:15;25.08;;;6.13;;
60002;SDS011;46322;52.018;8.702;2023-03-03T07:35:42;29.20;;;6.57;;
60002;SDS011;46322;52.018;8.702;2023-03-03T07:40:51;20.90;;;6.18;;
60002;SDS011;46322;52.018;8.702;2023-03-03T07:45:53;23.03;;;7.07;;
60002;SDS011;46322;52.018;8.702;2023-03-03T07:56:16;18.75;;;6.38;;
60002;SDS011;46322;52.018;8.702;2023-03-03T08:01:38;19.13;;;5.68;;
60002;SDS011;46322;52.018;8.702;2023-03-03T08:11:46;17.67;;;5.63;;
60002;SDS011;46322;52.018;8.702;2023-03-03T08:16:54;18.92;;;5.40;;
60002;SDS011;46322;52.018;8.702;2023-03-03T08:21:57;20.40;;;5.45;;
60002;SDS011;46322;52.018;8.702;2023-03-03T08:27:01;19.57;;;5.70;;
60002;SDS011;46322;52.018;8.702;2023-03-03T08:32:01;20.48;;;5.82;;
60002;SDS011;46322;52.018;8.702;2023-03-03T08:37:02;17.43;;;5.10;;
60002;SDS011;46322;52.018;8.702;2023-03-03T08:42:02;21.77;;;6.47;;
60002;SDS011;46322;52.018;8.702;2023-03-03T08:47:02;16.27;;;5.50;;
60002;SDS011;46322;52.018;8.702;2023-03-03T08:52:02;19.63;;;5.90;;
60002;SDS011;46322;52.018;8.702;2023-03-03T08:57:03;17.50;;;5.37;;
60002;SDS011;46322;52.018;8.702;2023-03-03T09:07:04;20.07;;;5.63;;
60002;SDS011;46322;52.018;8.702;2023-03-03T09:12:14;20.80;;;6.07;;
60002;SDS011;46322;52.018;8.702;2023-03-03T09:22:25;16.67;;;5.03;;
60002;SDS011;46322;52.018;8.702;2023-03-03T09:27:27;20.55;;;6.05;;
60002;SDS011;46322;52.018;8.702;2023-03-03T10:30:11;20.30;;;6.50;;
60002;SDS011;46322;52.018;8.702;2023-03-03T10:35:42;19.80;;;5.93;;
60002;SDS011;46322;52.018;8.702;2023-03-03T11:43:01;25.33;;;7.35;;
60002;SDS011;46322;52.018;8.702;2023-03-03T14:23:40;19.60;;;7.75;;
60002;SDS011;46322;52.018;8.702;2023-03-03T15:24:39;17.27;;;7.03;;
60002;SDS011;46322;52.018;8.702;2023-03-03T16:11:48;18.58;;;7.75;;
60002;SDS011;46322;52.018;8.702;2023-03-03T18:16:29;40.63;;;14.53;;
60002;SDS011;46322;52.018;8.702;2023-03-03T18:26:47;40.70;;;13.68;;
60002;SDS011;46322;52.018;8.702;2023-03-03T18:37:01;36.22;;;13.65;;
60002;SDS011;46322;52.018;8.702;2023-03-03T18:42:03;35.22;;;12.48;;
60002;SDS011;46322;52.018;8.702;2023-03-03T18:47:12;33.85;;;12.07;;
60002;SDS011;46322;52.018;8.702;2023-03-03T18:52:15;35.88;;;12.20;;
60002;SDS011;46322;52.018;8.702;2023-03-03T18:57:18;34.73;;;12.17;;
60002;SDS011;46322;52.018;8.702;2023-03-03T19:02:23;37.47;;;14.50;;
60002;SDS011;46322;52.018;8.702;2023-03-03T19:12:59;62.70;;;27.92;;
60002;SDS011;46322;52.018;8.702;2023-03-03T19:18:00;51.40;;;22.80;;
60002;SDS011;46322;52.018;8.702;2023-03-03T19:23:12;49.85;;;23.30;;
60002;SDS011;46322;52.018;8.702;2023-03-03T19:54:52;36.38;;;14.80;;
60002;SDS011;46322;52.018;8.702;2023-03-03T20:05:51;35.38;;;13.68;;
60002;SDS011;46322;52.018;8.702;2023-03-03T20:11:04;34.20;;;16.30;;
60002;SDS011;46322;52.018;8.702;2023-03-03T20:26:30;44.37;;;18.70;;
60002;SDS011;46322;52.018;8.702;2023-03-03T20:42:23;90.23;;;31.57;;
60002;SDS011;46322;52.018;8.702;2023-03-03T21:03:38;28.95;;;10.70;;
60002;SDS011;46322;52.018;8.702;2023-03-03T21:13:50;24.10;;;9.05;;
60002;SDS011;46322;52.018;8.702;2023-03-03T21:18:59;31.57;;;14.67;;
60002;SDS011;46322;52.018;8.702;2023-03-03T21:24:00;27.23;;;11.43;;
60002;SDS011;46322;52.018;8.702;2023-03-03T21:29:01;19.20;;;7.17;;
60002;SDS011;46322;52.018;8.702;2023-03-03T21:34:01;12.90;;;5.30;;
60002;SDS011;46322;52.018;8.702;2023-03-03T21:44:32;26.67;;;9.83;;
60002;SDS011;46322;52.018;8.702;2023-03-03T21:49:35;26.33;;;10.13;;
60002;SDS011;46322;52.018;8.702;2023-03-03T21:54:39;18.50;;;7.63;;
60002;SDS011;46322;52.018;8.702;2023-03-03T21:59:39;23.02;;;8.50;;
60002;SDS011;46322;52.018;8.702;2023-03-03T22:04:40;28.50;;;10.77;;
60002;SDS011;46322;52.018;8.702;2023-03-03T22:09:40;22.38;;;8.38;;
60002;SDS011;46322;52.018;8.702;2023-03-03T22:14:40;21.65;;;9.00;;
60002;SDS011;46322;52.018;8.702;2023-03-03T22:19:40;23.65;;;8.70;;
60002;SDS011;46322;52.018;8.702;2023-03-03T22:24:41;21.55;;;8.57;;
60002;SDS011;46322;52.018;8.702;2023-03-03T22:29:41;20.80;;;8.13;;
60002;SDS011;46322;52.018;8.702;2023-03-03T22:34:41;19.17;;;7.45;;
60002;SDS011;46322;52.018;8.702;2023-03-03T22:39:42;12.05;;;5.00;;
60002;SDS011;46322;52.018;8.702;2023-03-03T22:44:42;16.43;;;6.20;;
60002;SDS011;46322;52.018;8.702;2023-03-03T22:54:43;14.98;;;5.03;;
60002;SDS011;46322;52.018;8.702;2023-03-03T22:59:43;14.82;;;4.65;;
60002;SDS011;46322;52.018;8.702;2023-03-03T23:04:43;13.38;;;3.90;;
60002;SDS011;46322;52.018;8.702;2023-03-03T23:09:45;26.63;;;4.00;;
60002;SDS011;46322;52.018;8.702;2023-03-03T23:14:45;10.52;;;3.63;;
60002;SDS011;46322;52.018;8.702;2023-03-03T23:19:45;17.37;;;3.60;;
60002;SDS011;46322;52.018;8.702;2023-03-03T23:24:45;12.15;;;2.40;;
60002;SDS011;46322;52.018;8.702;2023-03-03T23:29:46;6.18;;;1.85;;
60002;SDS011;46322;52.018;8.702;2023-03-03T23:34:46;9.68;;;3.05;;
60002;SDS011;46322;52.018;8.702;2023-03-03T23:39:46;12.90;;;3.00;;
60002;SDS011;46322;52.018;8.702;2023-03-03T23:44:47;8.85;;;2.00;;
60002;SDS011;46322;52.018;8.702;2023-03-03T23:49:47;10.00;;;2.27;;
60002;SDS011;46322;52.018;8.702;2023-03-03T23:54:47;17.37;;;2.57;;
60002;SDS011;46322;52.018;8.702;2023-03-03T23:59:47;9.55;;;2.30;;
